• Join FlightAware (Why Join?)
  • Login
  • US Flag 
07:08PM EDT


 

Airport Tracker/Info


-or-


 

Live Flight TrackerFlight Track Log ✈ GJS3615 ✈ 30-Apr-2012 ✈ KORD - KMSY

Flight Track Log - Related Links

Times and Time Zones

All times are in EDT time to prevent confusion due to time zone crossing. See the GJS3615 flight status page for this flight to view local times or setup timezone preferences in your user account.

Time Position Orientation Groundspeed Altitude Reporting Facility
EDT Latitude Longitude Course Direction KTS MPH feet Rate Location/Type
06:16PM 41.9570 -87.9048 210° Southwest  Level FlightAware Approximate
06:17PM 41.8677 -87.9441 210° Southwest  Level FlightAware Approximate
06:18PM 41.7715 -87.9968 210° Southwest  Level FlightAware Approximate
06:19PM 41.6741 -88.0422 210° Southwest  Level FlightAware Approximate
06:20PM 41.5770 -88.0926 210° Southwest  Level FlightAware Approximate
06:21PM 41.4910 -88.1712 210° Southwest  Level FlightAware Approximate
06:22PM 41.3902 -88.1644 211° Southwest  Level FlightAware Approximate
06:23PM 41.2923 -88.2122 211° Southwest  Level FlightAware Approximate
06:24PM 41.1964 -88.2654 211° Southwest  Level FlightAware Approximate
06:25PM 41.1131 -88.3487 211° Southwest  Level FlightAware Approximate
06:26PM 41.0107 -88.3424 212° Southwest  Level FlightAware Approximate
06:27PM 40.9118 -88.3858 212° Southwest  Level FlightAware Approximate
06:28PM 40.8136 -88.4323 212° Southwest  Level FlightAware Approximate
06:29PM 40.7336 -88.5205 212° Southwest  Level FlightAware Approximate
06:30PM 40.6535 -88.6085 212° Southwest  Level FlightAware Approximate
06:31PM 40.5733 -88.6962 212° Southwest  Level FlightAware Approximate
06:32PM 40.4930 -88.7838 211° Southwest  Level FlightAware Approximate
06:33PM 40.4127 -88.8711 211° Southwest  Level FlightAware Approximate
06:34PM 40.3324 -88.9583 211° Southwest  Level FlightAware Approximate
06:35PM 40.2519 -89.0452 210° Southwest  Level FlightAware Approximate
06:36PM 40.1714 -89.1320 210° Southwest  Level FlightAware Approximate
06:37PM 40.0908 -89.2185 210° Southwest  Level FlightAware Approximate
06:38PM 39.9964 -89.2762 210° Southwest  Level FlightAware Approximate
06:39PM 39.9019 -89.3337 210° Southwest  Level FlightAware Approximate
06:40PM 39.8074 -89.3911 210° Southwest  Level FlightAware Approximate
06:41PM 39.7129 -89.4484 210° Southwest  Level FlightAware Approximate
06:42PM 39.6184 -89.5054 210° Southwest  Level FlightAware Approximate
06:43PM 39.5238 -89.5624 210° Southwest  Level FlightAware Approximate
06:44PM 39.4292 -89.6191 211° Southwest  Level FlightAware Approximate
06:45PM 39.3346 -89.6758 211° Southwest  Level FlightAware Approximate
06:46PM 39.2399 -89.7322 211° Southwest  Level FlightAware Approximate
06:47PM 39.1453 -89.7885 211° Southwest  Level FlightAware Approximate
06:48PM 39.0505 -89.8447 212° Southwest  Level FlightAware Approximate
06:49PM 38.9558 -89.9007 212° Southwest  Level FlightAware Approximate
06:50PM 38.8611 -89.9566 212° Southwest  Level FlightAware Approximate
06:51PM 38.7663 -90.0123 213° Southwest  Level FlightAware Approximate
06:52PM 38.6676 -90.0554 214° Southwest  Level FlightAware Approximate
06:53PM 38.5689 -90.0984 215° Southwest  Level FlightAware Approximate
06:54PM 38.4702 -90.1413 216° Southwest  Level FlightAware Approximate
06:55PM 38.3715 -90.1841 217° Southwest  Level FlightAware Approximate
06:56PM 38.2710 -90.2193 219° Southwest  Level FlightAware Approximate
06:57PM 38.1704 -90.2544 222° Southwest  Level FlightAware Approximate
06:58PM 38.0699 -90.2894 224° Southwest  Level FlightAware Approximate
06:59PM 37.9690 -90.3227 228° Southwest  Level FlightAware Approximate
07:00PM 37.8681 -90.3560 232° Southwest  Level FlightAware Approximate
07:01PM 37.7672 -90.3892 237° Southwest  Level FlightAware Approximate
07:02PM 37.6663 -90.4223 243° Southwest  Level FlightAware Approximate
07:03PM 37.5654 -90.4554 250° West  Level FlightAware Approximate
07:04PM 37.4613 -90.4636 260° West  Level FlightAware Approximate
07:05PM 37.3573 -90.4718 271° West  Level FlightAware Approximate
07:06PM 37.2532 -90.4799 282° West  Level FlightAware Approximate
07:07PM 37.1492 -90.4881 292° West  Level FlightAware Approximate
07:07PM 37.3650 -91.1500 187° South 431 496 36,000  Level Memphis Center
07:09PM 37.1231 -91.1894 187° South 441 507 36,000  Level Memphis Center
07:11PM 36.8872 -91.2258 187° South 436 502 36,000  Level Memphis Center
07:12PM 36.7683 -91.2453 186° South 436 502 36,000  Level Memphis Center
07:14PM 36.5306 -91.2789 188° South 431 496 36,000  Level Memphis Center
07:15PM 36.4072 -91.3006 188° South 439 505 36,000  Level Memphis Center
07:16PM 36.2906 -91.3200 187° South 439 505 36,000  Level Memphis Center
07:17PM 36.1672 -91.3392 186° South 439 505 36,000 -60 Level Memphis Center
07:18PM 36.0483 -91.3556 186° South 439 505 35,900 -480 Descending Memphis Center
07:19PM 35.9253 -91.3722 187° South 445 512 35,100 -900 Descending Memphis Center
07:20PM 35.8042 -91.3911 176° South 445 512 34,200 -600 Descending Memphis Center
07:21PM 35.6833 -91.3794 167° South 445 512 34,000 -120 Descending Memphis Center
07:22PM 35.5564 -91.3447 167° South 447 514 34,000  Level Memphis Center
07:23PM 35.4314 -91.3100 167° South 457 526 34,000  Level Memphis Center
07:24PM 35.2878 -91.2703 167° South 468 539 34,000  Level Memphis Center
07:25PM 35.1628 -91.2358 169° South 473 544 34,000  Level Memphis Center
07:26PM 35.0483 -91.2094 168° South 462 532 34,000  Level Memphis Center
07:27PM 34.9108 -91.1750 168° South 467 537 34,000  Level Memphis Center
07:28PM 34.7817 -91.1408 167° South 467 537 34,000  Level Memphis Center
07:29PM 34.6589 -91.1069 168° South 467 537 34,000 120 Level Memphis Center
07:30PM 34.5297 -91.0731 168° South 467 537 34,300 480 Climbing Memphis Center
07:31PM 34.4047 -91.0419 168° South 467 537 35,000 180 Climbing Memphis Center
07:33PM 34.1419 -90.9744 167° South 479 551 35,000  Level Memphis Center
07:34PM 34.0106 -90.9386 168° South 484 557 35,000  Level Memphis Center
07:35PM 33.8814 -90.9050 167° South 484 557 35,000  Level Memphis Center
07:36PM 33.7522 -90.8694 169° South 484 557 35,000  Level Memphis Center
07:37PM 33.6250 -90.8386 167° South 484 557 35,000  Level Memphis Center
07:38PM 33.4917 -90.8031 168° South 484 557 35,000  Level Memphis Center
07:39PM 33.3644 -90.7700 169° South 484 557 35,000  Level Memphis Center
07:40PM 33.2433 -90.7422 167° South 489 563 35,000  Level Memphis Center
07:41PM 33.1139 -90.7069 168° South 489 563 35,000  Level Memphis Center
07:42PM 32.9806 -90.6742 169° South 489 563 35,000  Level Memphis Center
07:43PM 32.8450 -90.6417 169° South 489 563 35,000  Level Memphis Center
07:44PM 32.7092 -90.6092 167° South 489 563 35,000  Level Memphis Center
07:45PM 32.5778 -90.5742 167° South 489 563 35,000 -420 Level Memphis Center
07:46PM 32.4483 -90.5394 168° South 489 563 34,200 -1,200 Descending Memphis Center
07:48PM 32.1686 -90.4697 169° South 474 545 31,300 -1,320 Descending Houston Center
07:49PM 32.0392 -90.4397 170° South 468 539 30,200 -1,140 Descending Houston Center
07:50PM 31.9117 -90.4119 167° South 468 539 29,100 -1,140 Descending Houston Center
07:51PM 31.7842 -90.3769 168° South 468 539 28,000 -600 Descending Houston Center
07:52PM 31.6567 -90.3444 168° South 468 539 28,000 -180 Level Houston Center
07:53PM 31.5311 -90.3144 169° South 468 539 27,700 -1,200 Descending Houston Center
07:54PM 31.4058 -90.2869 169° South 468 539 25,600 -2,220 Descending Houston Center
07:55PM 31.2803 -90.2572 176° South 468 539 23,300 -2,280 Descending Houston Center
07:56PM 31.1550 -90.2467 177° South 468 539 21,100 -2,220 Descending Houston Center
07:57PM 31.0381 -90.2386 177° South 452 520 18,900 -2,160 Descending Houston Center
07:58PM 30.9211 -90.2306 178° South 442 509 16,800 -2,280 Descending Houston Center
07:59PM 30.8250 -90.2272 170° South 394 453 14,800 -2,340 Descending Houston Center
08:00PM 30.7247 -90.2069 170° South 365 420 12,600 -1,980 Descending Houston Center
08:01PM 30.6453 -90.1911 167° South 321 369 11,000 -1,800 Descending Houston Center
08:02PM 30.5614 -90.1683 170° South 308 354 8,800 -1,920 Descending Houston Center
08:03PM 30.4925 -90.1547 169° South 272 313 7,200 -1,800 Descending Houston Center
08:04PM 30.4086 -90.1367 184° South 282 325 5,300 -1,500 Descending Houston Center
08:05PM 30.3400 -90.1425 190° South 268 308 4,200 -660 Descending Houston Center
08:06PM 30.2650 -90.1581 199° South 267 307 4,000 -120 Descending Houston Center
08:07PM 30.1942 -90.1856 196° South 272 313 4,000 -600 Level Houston Center
08:08PM 30.1256 -90.2083 196° South 242 278 2,900 -1,200 Descending Houston Center